Mamers, North Carolina
Current Conditions -  °F | °C
As of 11:15 PM on Sunday 23 Nov 2014 (Local Time) from KHRJ Reporting Station
Moderate Rain Moderate Rain  
Wind Chill: 65°   Ceiling: 4600
Heat Index: 65°   Visibility: 7mi
Dew Point: 64°   Wind: 13mph
Humidity: 98%   Direction: 190°S
Pressure: 29.81"   Gusts: 18mph
Location:  35.42°N, 78.93°W
Report Text: KHRJ 240415Z AUTO 19011G16KT 7SM RA SCT009 BKN046 OVC080 18/18 A2981 RMK AO2 P0009 T01840180
Loading
Personal Weather Stations






























Interactive Weather Map New forecast layout! Learn more

10-Day Weather Forecast

Advertisements
Track Severe Weather on mobile